Terminal Aerodrome Forecast
Issued by NWS Wilmington, OH

Current Version | Previous Version | Text Only | Print | Product List | Glossary Off
Versions: 1 2 3 4 5 6 7 8 9 10 11 12 13 14 15 16 17 18 19 20 21 22 23 24 25 26 27 28 29 30 31 32

000
FTUS41 KILN 290800 AAA
TAFCVG
TAF AMD
KCVG 290858Z 2909/3012 18010KT 5SM -SHRA OVC040
      TEMPO 2909/2912 2SM -SHRA SCT020 OVC035
     FM291300 18012G18KT P6SM VCSH BKN040
     FM291700 19012G20KT P6SM VCTS BKN040CB
     FM292300 23010KT P6SM VCSH BKN035
     FM300200 25006KT P6SM BKN035=

USA.gov is the U.S. government's official web portal to all federal, state and local government web resources and services.